Terminal Aerodrome Forecast
Issued by NWS Cleveland, OH

Home | Current Version | Previous Version | Graphics & Text | Print | Product List | Glossary Off
Versions: 1 2 3 4 5 6 7 8 9 10 11 12 13 14 15 16 17 18 19 20 21 22 23 24 25 26 27

740
FTUS41 KCLE 231429 AAA
TAFCAK
TAF AMD
KCAK 231429Z 2314/2412 06012KT 5SM -RA BR OVC019
      TEMPO 2315/2319 6SM BR BKN025 OVC050
     FM231900 06010KT 3SM -RA BR OVC006
     FM240400 VRB04KT 1 1/2SM -RA BR OVC003=

USA.gov is the U.S. government's official web portal to all federal, state and local government web resources and services.